createdAt,value
2019-01-18T00:00:37.193Z,9.93
2019-01-18T00:03:04.226Z,12.80
2019-01-18T00:05:31.135Z,12.37
2019-01-18T00:07:57.955Z,10.88
2019-01-18T00:10:27.931Z,11.05
2019-01-18T00:12:55.141Z,11.25
2019-01-18T00:15:22.025Z,9.68
2019-01-18T00:17:48.673Z,7.83
2019-01-18T00:20:15.521Z,6.95
2019-01-18T00:22:42.494Z,5.55
2019-01-18T00:25:09.201Z,5.08
2019-01-18T00:27:36.139Z,4.42
2019-01-18T00:30:03.004Z,4.67
2019-01-18T00:32:29.875Z,3.45
2019-01-18T00:34:56.828Z,3.35
2019-01-18T00:37:23.878Z,1.62
2019-01-18T00:39:50.734Z,1.70
2019-01-18T00:42:17.636Z,1.20
2019-01-18T00:44:44.379Z,0.95
2019-01-18T00:47:11.267Z,1.37
2019-01-18T00:49:38.441Z,1.35
2019-01-18T00:52:05.502Z,0.80
2019-01-18T00:54:32.237Z,1.45
2019-01-18T00:56:59.051Z,1.15
2019-01-18T00:59:25.776Z,1.17
2019-01-18T01:01:52.651Z,0.90
2019-01-18T01:04:19.424Z,0.68
2019-01-18T01:06:46.275Z,0.70
2019-01-18T01:09:13.148Z,1.12
2019-01-18T01:11:39.935Z,0.70
2019-01-18T01:14:10.919Z,0.65
2019-01-18T01:16:37.963Z,0.65
2019-01-18T01:19:04.622Z,0.75
2019-01-18T01:21:31.475Z,0.70
2019-01-18T01:23:58.318Z,0.50
2019-01-18T01:26:25.021Z,0.70
2019-01-18T01:28:51.957Z,0.70
2019-01-18T01:31:18.712Z,0.47
2019-01-18T01:33:45.606Z,0.50
2019-01-18T01:36:12.545Z,0.70
2019-01-18T01:38:39.413Z,0.45
2019-01-18T01:41:06.269Z,0.35
2019-01-18T01:43:33.434Z,0.30
2019-01-18T01:46:00.205Z,0.40
2019-01-18T01:48:27.285Z,0.70
2019-01-18T01:50:54.052Z,0.42
2019-01-18T01:53:20.875Z,0.53
2019-01-18T01:55:47.670Z,0.50
2019-01-18T01:58:14.815Z,0.40
2019-01-18T02:00:41.438Z,0.60
2019-01-18T02:03:08.556Z,1.05
2019-01-18T02:05:35.235Z,1.00
2019-01-18T02:08:02.500Z,0.40
2019-01-18T02:10:29.261Z,0.50
2019-01-18T02:12:56.173Z,0.35
2019-01-18T02:15:23.177Z,0.40
2019-01-18T02:17:50.180Z,0.30
2019-01-18T02:20:17.041Z,0.47
2019-01-18T02:22:43.979Z,0.30
2019-01-18T02:25:10.883Z,0.60
2019-01-18T02:27:37.829Z,0.50
2019-01-18T02:30:04.779Z,0.40
2019-01-18T02:32:32.887Z,0.33
2019-01-18T02:34:59.757Z,0.40
2019-01-18T02:37:26.829Z,0.75
2019-01-18T02:39:53.435Z,0.40
2019-01-18T02:42:20.759Z,0.45
2019-01-18T02:44:47.498Z,0.57
2019-01-18T02:47:14.481Z,0.47
2019-01-18T02:49:41.250Z,0.33
2019-01-18T02:52:08.400Z,0.42
2019-01-18T02:54:35.195Z,0.37
2019-01-18T02:57:01.940Z,0.50
2019-01-18T02:59:29.097Z,0.50
2019-01-18T03:01:55.875Z,0.30
2019-01-18T03:04:22.666Z,0.50
2019-01-18T03:06:49.511Z,0.40
2019-01-18T03:09:16.336Z,0.23
2019-01-18T03:11:43.135Z,0.40
2019-01-18T03:14:10.995Z,0.42
2019-01-18T03:16:37.879Z,0.30
2019-01-18T03:19:04.959Z,0.28
2019-01-18T03:21:31.810Z,0.30
2019-01-18T03:23:58.902Z,0.30
2019-01-18T03:26:25.639Z,0.50
2019-01-18T03:28:52.510Z,0.20
2019-01-18T03:31:19.335Z,0.20
2019-01-18T03:33:45.944Z,0.50
2019-01-18T03:36:12.640Z,0.33
2019-01-18T03:38:42.737Z,0.20
2019-01-18T03:41:09.273Z,0.30
2019-01-18T03:43:36.475Z,0.40
2019-01-18T03:46:03.451Z,0.28
2019-01-18T03:48:30.604Z,0.37
2019-01-18T03:50:57.576Z,0.85
2019-01-18T03:53:24.539Z,0.40
2019-01-18T03:55:51.103Z,0.37
2019-01-18T03:58:18.041Z,0.28
2019-01-18T04:00:44.843Z,0.65
2019-01-18T04:03:12.016Z,0.50
2019-01-18T04:05:38.822Z,0.50
2019-01-18T04:08:05.632Z,0.30
2019-01-18T04:10:32.497Z,0.40
2019-01-18T04:13:00.574Z,0.50
2019-01-18T04:15:27.315Z,2.00
2019-01-18T04:17:54.018Z,1.72
2019-01-18T04:20:21.173Z,1.75
2019-01-18T04:22:47.940Z,1.75
2019-01-18T04:25:15.160Z,0.98
2019-01-18T04:27:41.970Z,1.12
2019-01-18T04:30:08.850Z,0.85
2019-01-18T04:32:35.718Z,0.90
2019-01-18T04:35:02.967Z,0.80
2019-01-18T04:37:29.752Z,1.05
2019-01-18T04:39:56.610Z,0.70
2019-01-18T04:42:26.639Z,0.90
2019-01-18T04:44:53.414Z,0.60
2019-01-18T04:47:20.179Z,0.68
2019-01-18T04:49:47.242Z,0.60
2019-01-18T04:52:13.931Z,0.40
2019-01-18T04:54:41.070Z,0.42
2019-01-18T04:57:07.913Z,0.50
2019-01-18T04:59:35.259Z,0.40
2019-01-18T05:02:02.175Z,0.40
2019-01-18T05:04:29.256Z,0.50
2019-01-18T05:06:56.016Z,0.40
2019-01-18T05:09:22.994Z,0.60
2019-01-18T05:11:49.744Z,0.40
2019-01-18T05:14:16.709Z,1.35
2019-01-18T05:16:43.666Z,1.45
2019-01-18T05:19:10.624Z,0.95
2019-01-18T05:21:37.381Z,0.62
2019-01-18T05:24:04.645Z,0.65
2019-01-18T05:26:31.611Z,0.50
2019-01-18T05:28:58.824Z,0.40
2019-01-18T05:31:25.587Z,0.40
2019-01-18T05:33:52.767Z,0.60
2019-01-18T05:36:19.411Z,10.90
2019-01-18T05:38:46.580Z,9.95
2019-01-18T05:41:13.454Z,9.05
2019-01-18T05:43:40.315Z,11.83
2019-01-18T05:46:07.387Z,8.73
2019-01-18T05:48:34.256Z,7.30
2019-01-18T05:51:01.327Z,8.58
2019-01-18T05:53:28.063Z,6.40
2019-01-18T05:55:54.790Z,4.83
2019-01-18T05:58:21.604Z,5.20
2019-01-18T06:00:54.953Z,4.92
2019-01-18T06:03:17.045Z,3.98
2019-01-18T06:05:44.049Z,5.33
2019-01-18T06:08:10.999Z,4.72
2019-01-18T06:10:37.971Z,6.22
2019-01-18T06:13:04.939Z,5.25
2019-01-18T06:15:32.021Z,4.65
2019-01-18T06:17:58.780Z,4.22
2019-01-18T06:20:25.840Z,4.12
2019-01-18T06:22:52.612Z,4.15
2019-01-18T06:25:19.876Z,3.87
2019-01-18T06:27:46.650Z,3.80
2019-01-18T06:30:13.451Z,3.95
2019-01-18T06:32:40.286Z,4.97
2019-01-18T06:35:07.245Z,4.50
2019-01-18T06:37:33.789Z,5.30
2019-01-18T06:40:00.766Z,4.22
2019-01-18T06:42:27.741Z,5.40
2019-01-18T06:44:54.598Z,4.65
2019-01-18T06:47:21.354Z,5.20
2019-01-18T06:49:48.212Z,5.20
2019-01-18T06:52:15.089Z,5.22
2019-01-18T06:54:44.100Z,4.78
2019-01-18T06:57:10.851Z,5.12
2019-01-18T06:59:37.753Z,5.97
2019-01-18T07:02:04.581Z,6.10
2019-01-18T07:04:31.414Z,5.25
2019-01-18T07:06:58.207Z,5.50
2019-01-18T07:09:25.198Z,4.62
2019-01-18T07:11:51.951Z,5.60
2019-01-18T07:14:18.733Z,7.60
2019-01-18T07:16:45.679Z,6.87
2019-01-18T07:19:12.636Z,7.97
2019-01-18T07:21:39.511Z,7.12
2019-01-18T07:24:06.352Z,7.15
2019-01-18T07:26:33.467Z,5.78
2019-01-18T07:29:00.114Z,5.22
2019-01-18T07:31:26.865Z,6.25
2019-01-18T07:33:53.828Z,7.87
2019-01-18T07:36:20.913Z,16.80
2019-01-18T07:38:47.569Z,20.45
2019-01-18T07:41:14.745Z,14.68
2019-01-18T07:43:41.621Z,12.13
2019-01-18T07:46:08.648Z,12.07
2019-01-18T07:48:35.626Z,11.48
2019-01-18T07:51:02.594Z,11.55
2019-01-18T07:53:29.250Z,11.12
2019-01-18T07:55:56.019Z,12.07
2019-01-18T07:58:22.677Z,20.00
2019-01-18T08:00:51.815Z,22.52
2019-01-18T08:03:18.672Z,18.52
2019-01-18T08:05:45.432Z,17.10
2019-01-18T08:08:12.175Z,16.27
2019-01-18T08:10:38.953Z,19.00
2019-01-18T08:13:08.692Z,15.13
2019-01-18T08:15:35.532Z,13.62
2019-01-18T08:18:02.292Z,10.93
2019-01-18T08:20:32.132Z,9.10
2019-01-18T08:22:58.901Z,10.88
2019-01-18T08:25:26.172Z,7.70
2019-01-18T08:27:52.932Z,8.70
2019-01-18T08:30:19.593Z,8.75
2019-01-18T08:32:46.672Z,7.45
2019-01-18T08:35:13.532Z,7.00
2019-01-18T08:37:40.198Z,6.33
2019-01-18T08:40:07.253Z,7.15
2019-01-18T08:42:33.825Z,7.50
2019-01-18T08:45:00.638Z,8.38
2019-01-18T08:47:27.436Z,9.20
2019-01-18T08:49:54.349Z,10.40
2019-01-18T08:52:20.971Z,10.03
2019-01-18T08:54:47.643Z,10.55
2019-01-18T08:57:14.502Z,10.82
2019-01-18T08:59:41.160Z,14.40
2019-01-18T09:02:08.226Z,12.37
2019-01-18T09:04:34.983Z,12.82
2019-01-18T09:07:02.269Z,9.68
2019-01-18T09:09:28.948Z,8.30
2019-01-18T09:11:55.893Z,7.45
2019-01-18T09:14:22.761Z,7.85
2019-01-18T09:16:49.524Z,7.05
2019-01-18T09:19:16.480Z,7.65
2019-01-18T09:21:43.261Z,7.90
2019-01-18T09:24:09.977Z,10.05
2019-01-18T09:26:36.771Z,11.75
2019-01-18T09:29:03.845Z,10.40
2019-01-18T09:31:30.518Z,8.28
2019-01-18T09:33:57.363Z,7.45
2019-01-18T09:36:24.128Z,7.08
2019-01-18T09:38:51.099Z,7.72
2019-01-18T09:41:18.152Z,6.45
2019-01-18T09:43:44.944Z,4.75
2019-01-18T09:46:12.211Z,5.05
2019-01-18T09:48:39.688Z,5.25
2019-01-18T09:51:06.868Z,4.67
2019-01-18T09:53:33.722Z,5.45
2019-01-18T09:56:00.703Z,5.53
2019-01-18T09:58:27.340Z,4.90
2019-01-18T10:00:54.384Z,5.85
2019-01-18T10:03:21.181Z,5.37
2019-01-18T10:05:48.439Z,5.10
2019-01-18T10:08:15.312Z,4.90
2019-01-18T10:10:42.173Z,4.80
2019-01-18T10:13:08.923Z,5.10
2019-01-18T10:15:35.721Z,5.70
2019-01-18T10:18:02.581Z,4.60
2019-01-18T10:20:29.122Z,5.15
2019-01-18T10:22:55.985Z,4.60
2019-01-18T10:25:22.658Z,4.85
2019-01-18T10:27:49.941Z,4.17
2019-01-18T10:30:16.668Z,4.60
2019-01-18T10:32:43.438Z,4.65
2019-01-18T10:35:10.411Z,4.30
2019-01-18T10:37:37.096Z,4.65
2019-01-18T10:40:13.145Z,4.05
2019-01-18T10:42:40.325Z,4.25
2019-01-18T10:45:07.299Z,5.95
2019-01-18T10:47:34.274Z,6.50
2019-01-18T10:50:00.906Z,5.47
2019-01-18T10:52:27.984Z,7.58
2019-01-18T10:54:54.779Z,6.60
2019-01-18T10:57:21.719Z,7.55
2019-01-18T10:59:48.479Z,8.75
2019-01-18T11:02:15.660Z,7.17
2019-01-18T11:04:42.419Z,7.85
2019-01-18T11:07:09.463Z,7.92
2019-01-18T11:09:36.240Z,8.80
2019-01-18T11:12:03.516Z,8.25
2019-01-18T11:14:30.286Z,7.97
2019-01-18T11:16:57.240Z,8.20
2019-01-18T11:19:24.312Z,8.35
2019-01-18T11:21:51.180Z,9.80
2019-01-18T11:24:17.939Z,10.10
2019-01-18T11:26:45.028Z,10.90
2019-01-18T11:29:11.991Z,8.93
2019-01-18T11:31:39.162Z,9.08
2019-01-18T11:34:05.821Z,9.55
2019-01-18T11:36:33.720Z,7.53
2019-01-18T11:39:00.468Z,8.40
2019-01-18T11:41:27.507Z,7.78
2019-01-18T11:43:54.199Z,7.10
2019-01-18T11:46:20.964Z,7.12
2019-01-18T11:48:50.401Z,7.65
2019-01-18T11:51:16.521Z,6.62
2019-01-18T11:53:43.206Z,5.85
2019-01-18T11:56:10.058Z,5.37
2019-01-18T11:58:36.779Z,4.97
2019-01-18T12:01:03.588Z,4.83
2019-01-18T12:03:30.948Z,4.67
2019-01-18T12:05:57.918Z,4.25
2019-01-18T12:08:24.813Z,4.17
2019-01-18T12:18:25.861Z,3.70
2019-01-18T14:27:54.775Z,4.80
2019-01-18T17:17:51.627Z,7.90
2019-01-18T21:28:43.950Z,14.58
